sensor_id;sensor_type;location;lat;lon;timestamp;P1;durP1;ratioP1;P2;durP2;ratioP2
53271;SDS011;39160;48.580;7.756;2022-07-29T00:03:34;3.63;;;3.13;;
53271;SDS011;39160;48.580;7.756;2022-07-29T00:08:25;4.30;;;3.10;;
53271;SDS011;39160;48.580;7.756;2022-07-29T00:13:15;3.85;;;2.80;;
53271;SDS011;39160;48.580;7.756;2022-07-29T00:18:06;3.85;;;2.80;;
53271;SDS011;39160;48.580;7.756;2022-07-29T00:22:57;4.10;;;2.70;;
53271;SDS011;39160;48.580;7.756;2022-07-29T00:27:48;3.20;;;2.88;;
53271;SDS011;39160;48.580;7.756;2022-07-29T00:32:38;5.57;;;3.10;;
53271;SDS011;39160;48.580;7.756;2022-07-29T00:37:29;4.68;;;2.85;;
53271;SDS011;39160;48.580;7.756;2022-07-29T00:42:20;3.92;;;2.85;;
53271;SDS011;39160;48.580;7.756;2022-07-29T00:47:11;6.07;;;3.00;;
53271;SDS011;39160;48.580;7.756;2022-07-29T00:52:03;5.70;;;3.13;;
53271;SDS011;39160;48.580;7.756;2022-07-29T00:56:56;4.22;;;2.88;;
53271;SDS011;39160;48.580;7.756;2022-07-29T01:01:48;4.03;;;3.28;;
53271;SDS011;39160;48.580;7.756;2022-07-29T01:06:38;4.25;;;2.80;;
53271;SDS011;39160;48.580;7.756;2022-07-29T01:11:29;4.50;;;2.95;;
53271;SDS011;39160;48.580;7.756;2022-07-29T01:21:58;6.30;;;2.80;;
53271;SDS011;39160;48.580;7.756;2022-07-29T01:27:16;4.93;;;3.10;;
53271;SDS011;39160;48.580;7.756;2022-07-29T01:32:31;4.93;;;3.72;;
53271;SDS011;39160;48.580;7.756;2022-07-29T01:47:26;4.18;;;3.58;;
53271;SDS011;39160;48.580;7.756;2022-07-29T01:52:26;3.40;;;3.10;;
53271;SDS011;39160;48.580;7.756;2022-07-29T01:57:25;5.25;;;3.80;;
53271;SDS011;39160;48.580;7.756;2022-07-29T02:02:19;3.63;;;3.28;;
53271;SDS011;39160;48.580;7.756;2022-07-29T02:07:12;6.25;;;3.85;;
53271;SDS011;39160;48.580;7.756;2022-07-29T02:12:10;6.15;;;3.67;;
53271;SDS011;39160;48.580;7.756;2022-07-29T02:17:03;3.53;;;3.13;;
53271;SDS011;39160;48.580;7.756;2022-07-29T02:21:54;7.07;;;3.45;;
53271;SDS011;39160;48.580;7.756;2022-07-29T02:26:47;5.50;;;4.35;;
53271;SDS011;39160;48.580;7.756;2022-07-29T02:31:41;6.00;;;4.07;;
53271;SDS011;39160;48.580;7.756;2022-07-29T02:36:34;4.18;;;3.72;;
53271;SDS011;39160;48.580;7.756;2022-07-29T02:41:27;5.00;;;4.40;;
53271;SDS011;39160;48.580;7.756;2022-07-29T02:46:31;4.72;;;4.22;;
53271;SDS011;39160;48.580;7.756;2022-07-29T02:56:44;4.47;;;3.30;;
53271;SDS011;39160;48.580;7.756;2022-07-29T03:01:38;5.70;;;3.75;;
53271;SDS011;39160;48.580;7.756;2022-07-29T03:06:33;5.68;;;3.90;;
53271;SDS011;39160;48.580;7.756;2022-07-29T03:11:25;4.82;;;4.30;;
53271;SDS011;39160;48.580;7.756;2022-07-29T03:16:18;7.93;;;3.90;;
53271;SDS011;39160;48.580;7.756;2022-07-29T03:21:09;8.63;;;4.70;;
53271;SDS011;39160;48.580;7.756;2022-07-29T03:26:00;5.65;;;4.40;;
53271;SDS011;39160;48.580;7.756;2022-07-29T03:30:51;5.20;;;4.60;;
53271;SDS011;39160;48.580;7.756;2022-07-29T03:35:42;5.60;;;3.75;;
53271;SDS011;39160;48.580;7.756;2022-07-29T03:40:33;7.90;;;4.72;;
53271;SDS011;39160;48.580;7.756;2022-07-29T03:45:38;7.70;;;4.80;;
53271;SDS011;39160;48.580;7.756;2022-07-29T03:50:32;5.50;;;4.07;;
53271;SDS011;39160;48.580;7.756;2022-07-29T03:55:24;5.90;;;4.30;;
53271;SDS011;39160;48.580;7.756;2022-07-29T04:00:16;5.88;;;4.75;;
53271;SDS011;39160;48.580;7.756;2022-07-29T04:05:11;5.95;;;4.25;;
53271;SDS011;39160;48.580;7.756;2022-07-29T04:10:03;6.22;;;4.70;;
53271;SDS011;39160;48.580;7.756;2022-07-29T04:14:53;4.35;;;3.95;;
53271;SDS011;39160;48.580;7.756;2022-07-29T04:19:44;5.72;;;3.72;;
53271;SDS011;39160;48.580;7.756;2022-07-29T04:24:35;5.55;;;3.55;;
53271;SDS011;39160;48.580;7.756;2022-07-29T04:29:25;4.50;;;4.07;;
53271;SDS011;39160;48.580;7.756;2022-07-29T04:34:17;4.78;;;4.10;;
53271;SDS011;39160;48.580;7.756;2022-07-29T04:39:08;6.32;;;4.20;;
53271;SDS011;39160;48.580;7.756;2022-07-29T04:44:00;5.25;;;4.03;;
53271;SDS011;39160;48.580;7.756;2022-07-29T04:48:54;8.40;;;4.03;;
53271;SDS011;39160;48.580;7.756;2022-07-29T04:53:45;6.03;;;4.05;;
53271;SDS011;39160;48.580;7.756;2022-07-29T04:58:36;5.10;;;3.90;;
53271;SDS011;39160;48.580;7.756;2022-07-29T05:03:27;8.60;;;4.07;;
53271;SDS011;39160;48.580;7.756;2022-07-29T05:08:17;5.30;;;3.97;;
53271;SDS011;39160;48.580;7.756;2022-07-29T05:13:08;5.30;;;3.92;;
53271;SDS011;39160;48.580;7.756;2022-07-29T05:17:59;6.00;;;3.80;;
53271;SDS011;39160;48.580;7.756;2022-07-29T05:22:50;5.88;;;3.78;;
53271;SDS011;39160;48.580;7.756;2022-07-29T05:27:41;5.43;;;4.20;;
53271;SDS011;39160;48.580;7.756;2022-07-29T05:32:31;5.90;;;4.18;;
53271;SDS011;39160;48.580;7.756;2022-07-29T05:37:22;4.03;;;3.53;;
53271;SDS011;39160;48.580;7.756;2022-07-29T05:42:13;3.35;;;2.65;;
53271;SDS011;39160;48.580;7.756;2022-07-29T05:47:03;4.57;;;3.17;;
53271;SDS011;39160;48.580;7.756;2022-07-29T05:51:54;4.18;;;2.88;;
53271;SDS011;39160;48.580;7.756;2022-07-29T05:56:45;4.25;;;2.85;;
53271;SDS011;39160;48.580;7.756;2022-07-29T06:01:35;5.50;;;3.42;;
53271;SDS011;39160;48.580;7.756;2022-07-29T06:06:29;3.58;;;2.90;;
53271;SDS011;39160;48.580;7.756;2022-07-29T06:11:19;4.35;;;3.38;;
53271;SDS011;39160;48.580;7.756;2022-07-29T06:16:10;3.88;;;2.70;;
53271;SDS011;39160;48.580;7.756;2022-07-29T06:21:01;5.13;;;3.28;;
53271;SDS011;39160;48.580;7.756;2022-07-29T06:25:56;5.63;;;2.83;;
53271;SDS011;39160;48.580;7.756;2022-07-29T06:30:47;7.43;;;3.50;;
53271;SDS011;39160;48.580;7.756;2022-07-29T06:35:38;4.80;;;3.42;;
53271;SDS011;39160;48.580;7.756;2022-07-29T06:40:29;4.03;;;3.22;;
53271;SDS011;39160;48.580;7.756;2022-07-29T06:45:38;5.68;;;3.15;;
53271;SDS011;39160;48.580;7.756;2022-07-29T06:50:30;3.55;;;2.72;;
53271;SDS011;39160;48.580;7.756;2022-07-29T06:55:21;4.85;;;2.90;;
53271;SDS011;39160;48.580;7.756;2022-07-29T07:00:12;4.20;;;2.88;;
53271;SDS011;39160;48.580;7.756;2022-07-29T07:05:06;7.07;;;3.40;;
53271;SDS011;39160;48.580;7.756;2022-07-29T07:09:57;17.38;;;3.42;;
53271;SDS011;39160;48.580;7.756;2022-07-29T07:14:48;7.07;;;3.72;;
53271;SDS011;39160;48.580;7.756;2022-07-29T07:19:38;7.60;;;4.13;;
53271;SDS011;39160;48.580;7.756;2022-07-29T07:24:29;10.75;;;5.20;;
53271;SDS011;39160;48.580;7.756;2022-07-29T07:29:20;5.88;;;3.88;;
53271;SDS011;39160;48.580;7.756;2022-07-29T07:34:14;4.53;;;3.60;;
53271;SDS011;39160;48.580;7.756;2022-07-29T07:39:05;5.00;;;3.13;;
53271;SDS011;39160;48.580;7.756;2022-07-29T07:43:55;6.82;;;2.75;;
53271;SDS011;39160;48.580;7.756;2022-07-29T07:48:46;5.15;;;2.38;;
53271;SDS011;39160;48.580;7.756;2022-07-29T07:53:37;4.07;;;2.75;;
53271;SDS011;39160;48.580;7.756;2022-07-29T07:58:27;4.13;;;3.25;;
53271;SDS011;39160;48.580;7.756;2022-07-29T08:03:18;14.90;;;3.33;;
53271;SDS011;39160;48.580;7.756;2022-07-29T08:08:09;3.70;;;2.50;;
53271;SDS011;39160;48.580;7.756;2022-07-29T08:13:03;4.18;;;2.83;;
53271;SDS011;39160;48.580;7.756;2022-07-29T08:17:55;4.93;;;2.78;;
53271;SDS011;39160;48.580;7.756;2022-07-29T08:22:45;4.53;;;2.60;;
53271;SDS011;39160;48.580;7.756;2022-07-29T08:27:36;4.30;;;3.20;;
53271;SDS011;39160;48.580;7.756;2022-07-29T08:32:27;7.60;;;2.70;;
53271;SDS011;39160;48.580;7.756;2022-07-29T08:37:18;5.95;;;2.85;;
53271;SDS011;39160;48.580;7.756;2022-07-29T08:42:15;3.78;;;2.40;;
53271;SDS011;39160;48.580;7.756;2022-07-29T08:47:07;5.85;;;2.17;;
53271;SDS011;39160;48.580;7.756;2022-07-29T08:51:58;4.85;;;2.50;;
53271;SDS011;39160;48.580;7.756;2022-07-29T08:56:52;3.65;;;2.70;;
53271;SDS011;39160;48.580;7.756;2022-07-29T09:01:44;3.05;;;2.47;;
53271;SDS011;39160;48.580;7.756;2022-07-29T09:06:42;6.50;;;2.53;;
53271;SDS011;39160;48.580;7.756;2022-07-29T09:11:35;4.38;;;2.80;;
53271;SDS011;39160;48.580;7.756;2022-07-29T09:16:42;2.80;;;2.15;;
53271;SDS011;39160;48.580;7.756;2022-07-29T09:21:40;4.40;;;2.55;;
53271;SDS011;39160;48.580;7.756;2022-07-29T09:26:59;5.40;;;2.90;;
53271;SDS011;39160;48.580;7.756;2022-07-29T09:31:57;5.00;;;2.67;;
53271;SDS011;39160;48.580;7.756;2022-07-29T09:36:49;4.82;;;3.03;;
53271;SDS011;39160;48.580;7.756;2022-07-29T09:41:44;6.10;;;3.35;;
53271;SDS011;39160;48.580;7.756;2022-07-29T09:46:39;3.63;;;2.42;;
53271;SDS011;39160;48.580;7.756;2022-07-29T09:51:35;3.58;;;2.38;;
53271;SDS011;39160;48.580;7.756;2022-07-29T09:56:40;5.95;;;3.80;;
53271;SDS011;39160;48.580;7.756;2022-07-29T10:01:33;4.80;;;2.93;;
53271;SDS011;39160;48.580;7.756;2022-07-29T10:06:25;4.60;;;2.90;;
53271;SDS011;39160;48.580;7.756;2022-07-29T10:11:17;5.13;;;2.67;;
53271;SDS011;39160;48.580;7.756;2022-07-29T10:16:09;4.15;;;2.50;;
53271;SDS011;39160;48.580;7.756;2022-07-29T10:21:01;5.70;;;2.80;;
53271;SDS011;39160;48.580;7.756;2022-07-29T10:25:52;3.85;;;2.13;;
53271;SDS011;39160;48.580;7.756;2022-07-29T10:30:46;3.38;;;1.98;;
53271;SDS011;39160;48.580;7.756;2022-07-29T10:35:49;4.32;;;2.03;;
53271;SDS011;39160;48.580;7.756;2022-07-29T10:46:21;5.95;;;2.38;;
53271;SDS011;39160;48.580;7.756;2022-07-29T10:51:14;3.38;;;1.77;;
53271;SDS011;39160;48.580;7.756;2022-07-29T10:56:22;3.80;;;1.67;;
53271;SDS011;39160;48.580;7.756;2022-07-29T11:01:29;6.43;;;1.73;;
53271;SDS011;39160;48.580;7.756;2022-07-29T11:16:15;3.77;;;1.73;;
53271;SDS011;39160;48.580;7.756;2022-07-29T11:21:06;3.65;;;1.95;;
53271;SDS011;39160;48.580;7.756;2022-07-29T11:26:26;2.55;;;1.38;;
53271;SDS011;39160;48.580;7.756;2022-07-29T11:36:31;5.35;;;2.38;;
53271;SDS011;39160;48.580;7.756;2022-07-29T11:41:22;2.45;;;1.70;;
53271;SDS011;39160;48.580;7.756;2022-07-29T11:46:14;4.05;;;1.95;;
53271;SDS011;39160;48.580;7.756;2022-07-29T11:51:08;5.22;;;1.77;;
53271;SDS011;39160;48.580;7.756;2022-07-29T11:56:01;2.92;;;1.70;;
53271;SDS011;39160;48.580;7.756;2022-07-29T12:00:53;5.28;;;2.55;;
53271;SDS011;39160;48.580;7.756;2022-07-29T12:05:45;5.38;;;2.47;;
53271;SDS011;39160;48.580;7.756;2022-07-29T12:10:36;4.45;;;2.58;;
53271;SDS011;39160;48.580;7.756;2022-07-29T12:15:27;2.90;;;2.03;;
53271;SDS011;39160;48.580;7.756;2022-07-29T12:20:28;10.85;;;2.45;;
53271;SDS011;39160;48.580;7.756;2022-07-29T12:25:19;4.95;;;2.25;;
53271;SDS011;39160;48.580;7.756;2022-07-29T12:30:23;5.63;;;2.05;;
53271;SDS011;39160;48.580;7.756;2022-07-29T12:35:23;3.22;;;2.47;;
53271;SDS011;39160;48.580;7.756;2022-07-29T12:40:15;8.50;;;4.07;;
53271;SDS011;39160;48.580;7.756;2022-07-29T12:45:06;5.13;;;2.53;;
53271;SDS011;39160;48.580;7.756;2022-07-29T12:50:10;2.55;;;2.08;;
53271;SDS011;39160;48.580;7.756;2022-07-29T12:55:04;3.47;;;2.42;;
53271;SDS011;39160;48.580;7.756;2022-07-29T13:04:58;3.90;;;2.70;;
53271;SDS011;39160;48.580;7.756;2022-07-29T13:09:51;3.72;;;2.03;;
53271;SDS011;39160;48.580;7.756;2022-07-29T13:14:46;2.45;;;2.25;;
53271;SDS011;39160;48.580;7.756;2022-07-29T13:19:38;5.50;;;2.30;;
53271;SDS011;39160;48.580;7.756;2022-07-29T13:24:33;4.22;;;2.33;;
53271;SDS011;39160;48.580;7.756;2022-07-29T13:29:24;4.53;;;2.42;;
53271;SDS011;39160;48.580;7.756;2022-07-29T13:34:16;3.50;;;2.03;;
53271;SDS011;39160;48.580;7.756;2022-07-29T13:39:08;3.85;;;2.22;;
53271;SDS011;39160;48.580;7.756;2022-07-29T13:44:01;2.75;;;2.15;;
53271;SDS011;39160;48.580;7.756;2022-07-29T13:48:51;5.65;;;2.58;;
53271;SDS011;39160;48.580;7.756;2022-07-29T13:53:42;2.97;;;2.03;;
53271;SDS011;39160;48.580;7.756;2022-07-29T13:58:33;2.85;;;1.83;;
53271;SDS011;39160;48.580;7.756;2022-07-29T14:03:25;2.95;;;1.85;;
53271;SDS011;39160;48.580;7.756;2022-07-29T14:08:15;2.25;;;1.70;;
53271;SDS011;39160;48.580;7.756;2022-07-29T14:13:06;2.95;;;1.77;;
53271;SDS011;39160;48.580;7.756;2022-07-29T14:17:57;3.60;;;1.63;;
53271;SDS011;39160;48.580;7.756;2022-07-29T14:22:48;2.03;;;1.58;;
53271;SDS011;39160;48.580;7.756;2022-07-29T14:27:38;3.08;;;1.73;;
53271;SDS011;39160;48.580;7.756;2022-07-29T14:32:29;2.50;;;2.13;;
53271;SDS011;39160;48.580;7.756;2022-07-29T14:37:20;2.17;;;1.40;;
53271;SDS011;39160;48.580;7.756;2022-07-29T14:42:10;2.20;;;1.48;;
53271;SDS011;39160;48.580;7.756;2022-07-29T14:47:01;2.47;;;1.73;;
53271;SDS011;39160;48.580;7.756;2022-07-29T14:51:52;1.65;;;1.38;;
53271;SDS011;39160;48.580;7.756;2022-07-29T14:56:43;1.95;;;1.30;;
53271;SDS011;39160;48.580;7.756;2022-07-29T15:01:33;3.53;;;1.30;;
53271;SDS011;39160;48.580;7.756;2022-07-29T15:06:24;1.65;;;1.17;;
53271;SDS011;39160;48.580;7.756;2022-07-29T15:11:15;3.53;;;1.42;;
53271;SDS011;39160;48.580;7.756;2022-07-29T15:16:06;1.42;;;1.33;;
53271;SDS011;39160;48.580;7.756;2022-07-29T15:20:56;2.00;;;1.58;;
53271;SDS011;39160;48.580;7.756;2022-07-29T15:25:47;4.38;;;2.15;;
53271;SDS011;39160;48.580;7.756;2022-07-29T15:30:38;4.68;;;1.90;;
53271;SDS011;39160;48.580;7.756;2022-07-29T15:35:31;2.47;;;1.70;;
53271;SDS011;39160;48.580;7.756;2022-07-29T15:40:25;2.72;;;2.03;;
53271;SDS011;39160;48.580;7.756;2022-07-29T15:45:15;3.23;;;1.40;;
53271;SDS011;39160;48.580;7.756;2022-07-29T15:50:06;3.97;;;2.10;;
53271;SDS011;39160;48.580;7.756;2022-07-29T15:55:01;2.97;;;1.92;;
53271;SDS011;39160;48.580;7.756;2022-07-29T15:59:52;3.72;;;2.03;;
53271;SDS011;39160;48.580;7.756;2022-07-29T16:14:24;5.07;;;2.03;;
53271;SDS011;39160;48.580;7.756;2022-07-29T16:19:15;5.20;;;2.27;;
53271;SDS011;39160;48.580;7.756;2022-07-29T16:24:06;3.38;;;2.00;;
53271;SDS011;39160;48.580;7.756;2022-07-29T16:28:57;3.87;;;1.93;;
53271;SDS011;39160;48.580;7.756;2022-07-29T16:33:48;3.42;;;1.67;;
53271;SDS011;39160;48.580;7.756;2022-07-29T16:38:39;6.78;;;1.70;;
53271;SDS011;39160;48.580;7.756;2022-07-29T16:43:30;2.25;;;1.77;;
53271;SDS011;39160;48.580;7.756;2022-07-29T16:48:21;3.03;;;1.50;;
53271;SDS011;39160;48.580;7.756;2022-07-29T16:53:12;2.95;;;2.50;;
53271;SDS011;39160;48.580;7.756;2022-07-29T16:58:02;4.55;;;2.20;;
53271;SDS011;39160;48.580;7.756;2022-07-29T17:02:53;3.17;;;2.30;;
53271;SDS011;39160;48.580;7.756;2022-07-29T17:07:44;3.00;;;1.95;;
53271;SDS011;39160;48.580;7.756;2022-07-29T17:12:35;4.05;;;2.10;;
53271;SDS011;39160;48.580;7.756;2022-07-29T17:17:27;1.95;;;1.67;;
53271;SDS011;39160;48.580;7.756;2022-07-29T17:22:17;2.90;;;1.80;;
53271;SDS011;39160;48.580;7.756;2022-07-29T17:27:09;2.47;;;1.70;;
53271;SDS011;39160;48.580;7.756;2022-07-29T17:31:59;3.08;;;1.90;;
53271;SDS011;39160;48.580;7.756;2022-07-29T17:36:50;4.05;;;2.00;;
53271;SDS011;39160;48.580;7.756;2022-07-29T17:41:41;9.63;;;1.92;;
53271;SDS011;39160;48.580;7.756;2022-07-29T17:46:33;2.60;;;1.73;;
53271;SDS011;39160;48.580;7.756;2022-07-29T17:51:25;4.88;;;1.80;;
53271;SDS011;39160;48.580;7.756;2022-07-29T17:56:16;5.43;;;2.42;;
53271;SDS011;39160;48.580;7.756;2022-07-29T18:01:07;3.55;;;1.80;;
53271;SDS011;39160;48.580;7.756;2022-07-29T18:05:58;3.28;;;2.00;;
53271;SDS011;39160;48.580;7.756;2022-07-29T18:10:49;5.68;;;1.98;;
53271;SDS011;39160;48.580;7.756;2022-07-29T18:15:40;1.88;;;1.48;;
53271;SDS011;39160;48.580;7.756;2022-07-29T18:20:32;1.65;;;1.55;;
53271;SDS011;39160;48.580;7.756;2022-07-29T18:25:23;4.50;;;1.95;;
53271;SDS011;39160;48.580;7.756;2022-07-29T18:30:14;2.30;;;1.85;;
53271;SDS011;39160;48.580;7.756;2022-07-29T18:35:05;4.43;;;2.47;;
53271;SDS011;39160;48.580;7.756;2022-07-29T18:39:56;2.40;;;1.70;;
53271;SDS011;39160;48.580;7.756;2022-07-29T18:44:47;6.60;;;1.92;;
53271;SDS011;39160;48.580;7.756;2022-07-29T18:49:38;3.03;;;1.70;;
53271;SDS011;39160;48.580;7.756;2022-07-29T18:54:29;4.07;;;2.13;;
53271;SDS011;39160;48.580;7.756;2022-07-29T18:59:20;2.70;;;1.60;;
53271;SDS011;39160;48.580;7.756;2022-07-29T19:04:11;2.20;;;1.60;;
53271;SDS011;39160;48.580;7.756;2022-07-29T19:09:01;3.47;;;1.40;;
53271;SDS011;39160;48.580;7.756;2022-07-29T19:13:52;2.47;;;2.05;;
53271;SDS011;39160;48.580;7.756;2022-07-29T19:18:43;1.92;;;1.40;;
53271;SDS011;39160;48.580;7.756;2022-07-29T19:23:36;2.60;;;1.80;;
53271;SDS011;39160;48.580;7.756;2022-07-29T19:28:26;4.00;;;2.10;;
53271;SDS011;39160;48.580;7.756;2022-07-29T19:33:17;3.83;;;1.70;;
53271;SDS011;39160;48.580;7.756;2022-07-29T19:38:09;3.10;;;1.65;;
53271;SDS011;39160;48.580;7.756;2022-07-29T19:42:59;3.13;;;1.70;;
53271;SDS011;39160;48.580;7.756;2022-07-29T19:47:50;2.28;;;1.73;;
53271;SDS011;39160;48.580;7.756;2022-07-29T19:52:42;5.05;;;2.10;;
53271;SDS011;39160;48.580;7.756;2022-07-29T19:57:35;3.22;;;1.88;;
53271;SDS011;39160;48.580;7.756;2022-07-29T20:02:26;4.43;;;1.67;;
53271;SDS011;39160;48.580;7.756;2022-07-29T20:07:17;3.13;;;1.88;;
53271;SDS011;39160;48.580;7.756;2022-07-29T20:12:08;3.20;;;1.80;;
53271;SDS011;39160;48.580;7.756;2022-07-29T20:17:00;5.15;;;2.47;;
53271;SDS011;39160;48.580;7.756;2022-07-29T20:21:51;3.20;;;2.08;;
53271;SDS011;39160;48.580;7.756;2022-07-29T20:26:43;5.50;;;2.42;;
53271;SDS011;39160;48.580;7.756;2022-07-29T20:31:34;4.70;;;2.25;;
53271;SDS011;39160;48.580;7.756;2022-07-29T20:36:34;2.53;;;1.70;;
53271;SDS011;39160;48.580;7.756;2022-07-29T20:41:25;6.10;;;2.28;;
53271;SDS011;39160;48.580;7.756;2022-07-29T20:46:17;5.25;;;2.58;;
53271;SDS011;39160;48.580;7.756;2022-07-29T20:51:08;3.75;;;2.25;;
53271;SDS011;39160;48.580;7.756;2022-07-29T20:55:59;4.80;;;2.00;;
53271;SDS011;39160;48.580;7.756;2022-07-29T21:00:50;5.05;;;1.92;;
53271;SDS011;39160;48.580;7.756;2022-07-29T21:05:40;4.43;;;2.72;;
53271;SDS011;39160;48.580;7.756;2022-07-29T21:10:32;4.97;;;2.70;;
53271;SDS011;39160;48.580;7.756;2022-07-29T21:15:23;4.93;;;2.50;;
53271;SDS011;39160;48.580;7.756;2022-07-29T21:20:16;6.82;;;2.03;;
53271;SDS011;39160;48.580;7.756;2022-07-29T21:25:08;5.03;;;1.98;;
53271;SDS011;39160;48.580;7.756;2022-07-29T21:29:59;4.65;;;2.20;;
53271;SDS011;39160;48.580;7.756;2022-07-29T21:34:50;7.70;;;2.00;;
53271;SDS011;39160;48.580;7.756;2022-07-29T21:39:41;5.20;;;2.20;;
53271;SDS011;39160;48.580;7.756;2022-07-29T21:44:33;4.45;;;2.20;;
53271;SDS011;39160;48.580;7.756;2022-07-29T21:49:27;2.37;;;2.17;;
53271;SDS011;39160;48.580;7.756;2022-07-29T21:54:17;5.53;;;2.72;;
53271;SDS011;39160;48.580;7.756;2022-07-29T21:59:08;5.13;;;3.03;;
53271;SDS011;39160;48.580;7.756;2022-07-29T22:03:59;2.78;;;2.28;;
53271;SDS011;39160;48.580;7.756;2022-07-29T22:08:50;6.38;;;2.55;;
53271;SDS011;39160;48.580;7.756;2022-07-29T22:13:40;2.30;;;1.98;;
53271;SDS011;39160;48.580;7.756;2022-07-29T22:18:31;4.45;;;2.50;;
53271;SDS011;39160;48.580;7.756;2022-07-29T22:23:22;5.65;;;2.47;;
53271;SDS011;39160;48.580;7.756;2022-07-29T22:28:13;3.10;;;2.40;;
53271;SDS011;39160;48.580;7.756;2022-07-29T22:33:03;3.33;;;2.40;;
53271;SDS011;39160;48.580;7.756;2022-07-29T22:37:54;8.88;;;2.55;;
53271;SDS011;39160;48.580;7.756;2022-07-29T22:42:45;4.72;;;2.72;;
53271;SDS011;39160;48.580;7.756;2022-07-29T22:47:35;5.07;;;2.40;;
53271;SDS011;39160;48.580;7.756;2022-07-29T22:52:27;2.90;;;2.60;;
53271;SDS011;39160;48.580;7.756;2022-07-29T22:57:17;4.57;;;2.53;;
53271;SDS011;39160;48.580;7.756;2022-07-29T23:02:08;4.75;;;2.63;;
53271;SDS011;39160;48.580;7.756;2022-07-29T23:06:59;3.45;;;2.58;;
53271;SDS011;39160;48.580;7.756;2022-07-29T23:11:49;6.57;;;3.35;;
53271;SDS011;39160;48.580;7.756;2022-07-29T23:16:40;3.40;;;2.75;;
53271;SDS011;39160;48.580;7.756;2022-07-29T23:21:31;4.45;;;2.72;;
53271;SDS011;39160;48.580;7.756;2022-07-29T23:26:21;4.90;;;2.33;;
53271;SDS011;39160;48.580;7.756;2022-07-29T23:31:12;5.90;;;3.00;;
53271;SDS011;39160;48.580;7.756;2022-07-29T23:36:03;3.03;;;2.38;;
53271;SDS011;39160;48.580;7.756;2022-07-29T23:40:54;3.80;;;2.03;;
53271;SDS011;39160;48.580;7.756;2022-07-29T23:45:44;6.68;;;2.80;;
53271;SDS011;39160;48.580;7.756;2022-07-29T23:50:35;5.40;;;2.60;;
53271;SDS011;39160;48.580;7.756;2022-07-29T23:55:25;5.95;;;2.53;;
